sensor_id;sensor_type;location;lat;lon;timestamp;P1;durP1;ratioP1;P2;durP2;ratioP2
47367;SDS011;34646;47.964;7.982;2022-12-18T00:04:28;22.33;;;9.37;;
47367;SDS011;34646;47.964;7.982;2022-12-18T00:10:29;21.02;;;9.82;;
47367;SDS011;34646;47.964;7.982;2022-12-18T00:16:30;20.63;;;9.27;;
47367;SDS011;34646;47.964;7.982;2022-12-18T00:22:32;19.52;;;9.32;;
47367;SDS011;34646;47.964;7.982;2022-12-18T00:28:33;22.90;;;9.60;;
47367;SDS011;34646;47.964;7.982;2022-12-18T00:34:34;21.40;;;8.57;;
47367;SDS011;34646;47.964;7.982;2022-12-18T00:40:35;18.03;;;8.57;;
47367;SDS011;34646;47.964;7.982;2022-12-18T00:46:35;23.27;;;9.53;;
47367;SDS011;34646;47.964;7.982;2022-12-18T00:52:36;20.37;;;8.70;;
47367;SDS011;34646;47.964;7.982;2022-12-18T00:58:39;16.92;;;7.55;;
47367;SDS011;34646;47.964;7.982;2022-12-18T01:04:40;18.27;;;8.93;;
47367;SDS011;34646;47.964;7.982;2022-12-18T01:10:40;20.20;;;8.53;;
47367;SDS011;34646;47.964;7.982;2022-12-18T01:16:41;16.77;;;7.07;;
47367;SDS011;34646;47.964;7.982;2022-12-18T01:22:42;17.40;;;8.57;;
47367;SDS011;34646;47.964;7.982;2022-12-18T01:28:43;16.73;;;7.90;;
47367;SDS011;34646;47.964;7.982;2022-12-18T01:34:44;14.52;;;7.57;;
47367;SDS011;34646;47.964;7.982;2022-12-18T01:40:45;18.90;;;7.90;;
47367;SDS011;34646;47.964;7.982;2022-12-18T01:46:45;13.77;;;7.77;;
47367;SDS011;34646;47.964;7.982;2022-12-18T01:52:50;17.93;;;7.73;;
47367;SDS011;34646;47.964;7.982;2022-12-18T01:58:55;15.45;;;7.18;;
47367;SDS011;34646;47.964;7.982;2022-12-18T02:05:02;17.00;;;7.13;;
47367;SDS011;34646;47.964;7.982;2022-12-18T02:17:18;14.55;;;7.25;;
47367;SDS011;34646;47.964;7.982;2022-12-18T02:29:44;12.00;;;6.80;;
47367;SDS011;34646;47.964;7.982;2022-12-18T02:35:55;17.17;;;7.63;;
47367;SDS011;34646;47.964;7.982;2022-12-18T02:41:58;14.35;;;6.70;;
47367;SDS011;34646;47.964;7.982;2022-12-18T02:48:01;12.68;;;7.13;;
47367;SDS011;34646;47.964;7.982;2022-12-18T02:54:10;12.23;;;6.20;;
47367;SDS011;34646;47.964;7.982;2022-12-18T03:00:40;12.00;;;6.13;;
47367;SDS011;34646;47.964;7.982;2022-12-18T03:06:48;14.20;;;6.32;;
47367;SDS011;34646;47.964;7.982;2022-12-18T03:12:52;10.15;;;5.97;;
47367;SDS011;34646;47.964;7.982;2022-12-18T03:19:10;12.95;;;5.97;;
47367;SDS011;34646;47.964;7.982;2022-12-18T03:25:15;11.90;;;6.13;;
47367;SDS011;34646;47.964;7.982;2022-12-18T03:31:20;11.93;;;6.72;;
47367;SDS011;34646;47.964;7.982;2022-12-18T03:37:24;11.02;;;5.55;;
47367;SDS011;34646;47.964;7.982;2022-12-18T03:55:44;12.02;;;6.20;;
47367;SDS011;34646;47.964;7.982;2022-12-18T04:01:48;11.27;;;6.15;;
47367;SDS011;34646;47.964;7.982;2022-12-18T04:07:53;12.10;;;5.93;;
47367;SDS011;34646;47.964;7.982;2022-12-18T04:13:56;9.88;;;5.80;;
47367;SDS011;34646;47.964;7.982;2022-12-18T04:19:58;12.32;;;6.07;;
47367;SDS011;34646;47.964;7.982;2022-12-18T04:25:59;10.13;;;5.10;;
47367;SDS011;34646;47.964;7.982;2022-12-18T04:32:18;9.63;;;5.10;;
47367;SDS011;34646;47.964;7.982;2022-12-18T04:38:20;11.52;;;5.95;;
47367;SDS011;34646;47.964;7.982;2022-12-18T04:44:27;12.82;;;6.03;;
47367;SDS011;34646;47.964;7.982;2022-12-18T04:50:28;10.07;;;5.07;;
47367;SDS011;34646;47.964;7.982;2022-12-18T04:56:30;10.57;;;5.75;;
47367;SDS011;34646;47.964;7.982;2022-12-18T05:02:31;10.55;;;5.60;;
47367;SDS011;34646;47.964;7.982;2022-12-18T05:08:33;10.40;;;5.23;;
47367;SDS011;34646;47.964;7.982;2022-12-18T05:14:33;9.07;;;4.90;;
47367;SDS011;34646;47.964;7.982;2022-12-18T05:20:34;9.27;;;5.03;;
47367;SDS011;34646;47.964;7.982;2022-12-18T05:26:35;9.23;;;5.00;;
47367;SDS011;34646;47.964;7.982;2022-12-18T05:32:35;10.43;;;4.90;;
47367;SDS011;34646;47.964;7.982;2022-12-18T05:38:37;8.13;;;4.87;;
47367;SDS011;34646;47.964;7.982;2022-12-18T05:44:38;9.25;;;4.63;;
47367;SDS011;34646;47.964;7.982;2022-12-18T05:50:40;8.33;;;4.67;;
47367;SDS011;34646;47.964;7.982;2022-12-18T05:56:41;10.63;;;5.38;;
47367;SDS011;34646;47.964;7.982;2022-12-18T06:02:42;6.77;;;4.10;;
47367;SDS011;34646;47.964;7.982;2022-12-18T06:08:47;7.85;;;4.80;;
47367;SDS011;34646;47.964;7.982;2022-12-18T06:14:48;10.40;;;5.40;;
47367;SDS011;34646;47.964;7.982;2022-12-18T06:20:56;9.70;;;4.80;;
47367;SDS011;34646;47.964;7.982;2022-12-18T06:26:57;8.70;;;4.75;;
47367;SDS011;34646;47.964;7.982;2022-12-18T06:32:57;9.27;;;5.20;;
47367;SDS011;34646;47.964;7.982;2022-12-18T06:38:58;8.60;;;4.80;;
47367;SDS011;34646;47.964;7.982;2022-12-18T06:44:59;6.93;;;4.07;;
47367;SDS011;34646;47.964;7.982;2022-12-18T06:51:00;7.63;;;4.87;;
47367;SDS011;34646;47.964;7.982;2022-12-18T06:57:01;9.55;;;4.80;;
47367;SDS011;34646;47.964;7.982;2022-12-18T07:03:02;7.07;;;4.17;;
47367;SDS011;34646;47.964;7.982;2022-12-18T07:09:02;10.67;;;5.10;;
47367;SDS011;34646;47.964;7.982;2022-12-18T07:15:03;7.77;;;4.50;;
47367;SDS011;34646;47.964;7.982;2022-12-18T07:21:05;8.20;;;4.10;;
47367;SDS011;34646;47.964;7.982;2022-12-18T07:27:07;7.10;;;4.30;;
47367;SDS011;34646;47.964;7.982;2022-12-18T07:33:08;8.47;;;4.13;;
47367;SDS011;34646;47.964;7.982;2022-12-18T07:39:10;6.80;;;3.93;;
47367;SDS011;34646;47.964;7.982;2022-12-18T07:45:11;9.43;;;4.18;;
47367;SDS011;34646;47.964;7.982;2022-12-18T07:51:13;14.43;;;4.33;;
47367;SDS011;34646;47.964;7.982;2022-12-18T07:57:14;17.08;;;4.78;;
47367;SDS011;34646;47.964;7.982;2022-12-18T08:03:15;9.73;;;4.20;;
47367;SDS011;34646;47.964;7.982;2022-12-18T08:09:16;7.87;;;3.97;;
47367;SDS011;34646;47.964;7.982;2022-12-18T08:15:17;10.10;;;4.57;;
47367;SDS011;34646;47.964;7.982;2022-12-18T08:21:22;10.97;;;4.03;;
47367;SDS011;34646;47.964;7.982;2022-12-18T08:27:25;12.85;;;4.47;;
47367;SDS011;34646;47.964;7.982;2022-12-18T08:33:25;12.20;;;4.57;;
47367;SDS011;34646;47.964;7.982;2022-12-18T08:39:26;12.03;;;3.67;;
47367;SDS011;34646;47.964;7.982;2022-12-18T08:45:27;6.73;;;3.50;;
47367;SDS011;34646;47.964;7.982;2022-12-18T08:51:28;9.63;;;3.73;;
47367;SDS011;34646;47.964;7.982;2022-12-18T08:57:28;10.40;;;4.80;;
47367;SDS011;34646;47.964;7.982;2022-12-18T09:03:29;11.57;;;4.67;;
47367;SDS011;34646;47.964;7.982;2022-12-18T09:09:30;9.47;;;4.37;;
47367;SDS011;34646;47.964;7.982;2022-12-18T09:15:30;11.97;;;4.73;;
47367;SDS011;34646;47.964;7.982;2022-12-18T09:21:32;7.47;;;4.73;;
47367;SDS011;34646;47.964;7.982;2022-12-18T09:27:34;90.35;;;32.35;;
47367;SDS011;34646;47.964;7.982;2022-12-18T09:33:35;16.03;;;10.30;;
47367;SDS011;34646;47.964;7.982;2022-12-18T09:39:36;30.27;;;13.10;;
47367;SDS011;34646;47.964;7.982;2022-12-18T09:45:42;34.80;;;14.48;;
47367;SDS011;34646;47.964;7.982;2022-12-18T09:51:50;27.65;;;12.90;;
47367;SDS011;34646;47.964;7.982;2022-12-18T09:58:10;26.70;;;12.20;;
47367;SDS011;34646;47.964;7.982;2022-12-18T10:04:29;27.65;;;11.20;;
47367;SDS011;34646;47.964;7.982;2022-12-18T10:10:46;20.80;;;9.73;;
47367;SDS011;34646;47.964;7.982;2022-12-18T10:16:58;23.17;;;9.90;;
47367;SDS011;34646;47.964;7.982;2022-12-18T10:23:13;18.95;;;8.85;;
47367;SDS011;34646;47.964;7.982;2022-12-18T10:29:26;21.27;;;9.10;;
47367;SDS011;34646;47.964;7.982;2022-12-18T10:35:27;17.77;;;8.83;;
47367;SDS011;34646;47.964;7.982;2022-12-18T10:41:28;17.77;;;7.93;;
47367;SDS011;34646;47.964;7.982;2022-12-18T10:47:30;13.23;;;6.63;;
47367;SDS011;34646;47.964;7.982;2022-12-18T10:53:35;14.85;;;6.97;;
47367;SDS011;34646;47.964;7.982;2022-12-18T10:59:49;14.07;;;7.40;;
47367;SDS011;34646;47.964;7.982;2022-12-18T11:06:00;12.93;;;6.63;;
47367;SDS011;34646;47.964;7.982;2022-12-18T11:18:19;23.60;;;6.97;;
47367;SDS011;34646;47.964;7.982;2022-12-18T11:30:32;14.90;;;5.97;;
47367;SDS011;34646;47.964;7.982;2022-12-18T11:36:36;12.70;;;6.00;;
47367;SDS011;34646;47.964;7.982;2022-12-18T11:42:51;13.73;;;5.55;;
47367;SDS011;34646;47.964;7.982;2022-12-18T11:48:56;65.90;;;24.48;;
47367;SDS011;34646;47.964;7.982;2022-12-18T11:55:14;65.85;;;25.55;;
47367;SDS011;34646;47.964;7.982;2022-12-18T12:14:01;63.35;;;26.80;;
47367;SDS011;34646;47.964;7.982;2022-12-18T12:20:10;61.28;;;24.55;;
47367;SDS011;34646;47.964;7.982;2022-12-18T12:26:36;61.08;;;25.25;;
47367;SDS011;34646;47.964;7.982;2022-12-18T12:39:05;62.15;;;23.60;;
47367;SDS011;34646;47.964;7.982;2022-12-18T12:45:14;59.38;;;22.63;;
47367;SDS011;34646;47.964;7.982;2022-12-18T12:51:36;51.42;;;22.95;;
47367;SDS011;34646;47.964;7.982;2022-12-18T12:57:41;53.33;;;21.80;;
47367;SDS011;34646;47.964;7.982;2022-12-18T13:16:23;49.90;;;20.73;;
47367;SDS011;34646;47.964;7.982;2022-12-18T13:22:28;45.67;;;18.65;;
47367;SDS011;34646;47.964;7.982;2022-12-18T13:34:33;37.30;;;17.63;;
47367;SDS011;34646;47.964;7.982;2022-12-18T13:46:48;37.50;;;15.50;;
47367;SDS011;34646;47.964;7.982;2022-12-18T13:52:51;35.22;;;16.10;;
47367;SDS011;34646;47.964;7.982;2022-12-18T14:05:27;31.08;;;13.50;;
47367;SDS011;34646;47.964;7.982;2022-12-18T14:11:32;32.92;;;13.68;;
47367;SDS011;34646;47.964;7.982;2022-12-18T14:17:32;31.53;;;13.57;;
47367;SDS011;34646;47.964;7.982;2022-12-18T14:23:38;29.83;;;13.43;;
47367;SDS011;34646;47.964;7.982;2022-12-18T14:29:42;32.17;;;13.38;;
47367;SDS011;34646;47.964;7.982;2022-12-18T14:36:00;31.88;;;14.02;;
47367;SDS011;34646;47.964;7.982;2022-12-18T14:42:03;25.42;;;12.73;;
47367;SDS011;34646;47.964;7.982;2022-12-18T14:48:07;28.77;;;11.77;;
47367;SDS011;34646;47.964;7.982;2022-12-18T14:54:14;28.35;;;12.30;;
47367;SDS011;34646;47.964;7.982;2022-12-18T15:00:19;25.42;;;11.73;;
47367;SDS011;34646;47.964;7.982;2022-12-18T15:06:38;28.90;;;11.25;;
47367;SDS011;34646;47.964;7.982;2022-12-18T15:12:45;19.75;;;10.27;;
47367;SDS011;34646;47.964;7.982;2022-12-18T15:18:46;27.02;;;11.20;;
47367;SDS011;34646;47.964;7.982;2022-12-18T15:24:48;28.17;;;11.80;;
47367;SDS011;34646;47.964;7.982;2022-12-18T15:30:59;23.02;;;9.68;;
47367;SDS011;34646;47.964;7.982;2022-12-18T15:37:02;22.45;;;9.98;;
47367;SDS011;34646;47.964;7.982;2022-12-18T15:43:04;17.63;;;8.77;;
47367;SDS011;34646;47.964;7.982;2022-12-18T15:49:26;19.83;;;9.07;;
47367;SDS011;34646;47.964;7.982;2022-12-18T15:55:27;18.60;;;9.90;;
47367;SDS011;34646;47.964;7.982;2022-12-18T16:01:47;17.58;;;9.52;;
47367;SDS011;34646;47.964;7.982;2022-12-18T16:07:49;19.10;;;10.80;;
47367;SDS011;34646;47.964;7.982;2022-12-18T16:13:49;32.60;;;17.97;;
47367;SDS011;34646;47.964;7.982;2022-12-18T16:19:50;58.60;;;36.97;;
47367;SDS011;34646;47.964;7.982;2022-12-18T16:25:51;24.67;;;16.83;;
47367;SDS011;34646;47.964;7.982;2022-12-18T16:31:51;43.47;;;23.93;;
47367;SDS011;34646;47.964;7.982;2022-12-18T16:37:53;40.17;;;23.27;;
47367;SDS011;34646;47.964;7.982;2022-12-18T16:43:54;34.00;;;19.77;;
47367;SDS011;34646;47.964;7.982;2022-12-18T16:49:54;38.07;;;18.07;;
47367;SDS011;34646;47.964;7.982;2022-12-18T16:55:55;34.97;;;18.07;;
47367;SDS011;34646;47.964;7.982;2022-12-18T17:01:56;27.70;;;17.00;;
47367;SDS011;34646;47.964;7.982;2022-12-18T17:07:56;31.77;;;16.20;;
47367;SDS011;34646;47.964;7.982;2022-12-18T17:13:57;26.87;;;14.10;;
47367;SDS011;34646;47.964;7.982;2022-12-18T17:19:58;29.30;;;14.63;;
47367;SDS011;34646;47.964;7.982;2022-12-18T17:25:59;26.67;;;14.67;;
47367;SDS011;34646;47.964;7.982;2022-12-18T17:31:59;24.47;;;13.20;;
47367;SDS011;34646;47.964;7.982;2022-12-18T17:38:00;27.53;;;12.83;;
47367;SDS011;34646;47.964;7.982;2022-12-18T17:44:02;23.77;;;13.33;;
47367;SDS011;34646;47.964;7.982;2022-12-18T17:50:04;22.55;;;12.32;;
47367;SDS011;34646;47.964;7.982;2022-12-18T17:56:06;27.17;;;12.57;;
47367;SDS011;34646;47.964;7.982;2022-12-18T18:02:08;19.92;;;11.57;;
47367;SDS011;34646;47.964;7.982;2022-12-18T18:08:10;19.80;;;11.77;;
47367;SDS011;34646;47.964;7.982;2022-12-18T18:14:20;19.47;;;11.30;;
47367;SDS011;34646;47.964;7.982;2022-12-18T18:20:20;19.38;;;10.50;;
47367;SDS011;34646;47.964;7.982;2022-12-18T18:26:21;20.53;;;11.50;;
47367;SDS011;34646;47.964;7.982;2022-12-18T18:32:23;22.20;;;11.82;;
47367;SDS011;34646;47.964;7.982;2022-12-18T18:38:23;19.07;;;10.90;;
47367;SDS011;34646;47.964;7.982;2022-12-18T18:44:24;20.13;;;9.97;;
47367;SDS011;34646;47.964;7.982;2022-12-18T18:50:25;18.00;;;9.87;;
47367;SDS011;34646;47.964;7.982;2022-12-18T18:56:25;21.43;;;10.17;;
47367;SDS011;34646;47.964;7.982;2022-12-18T19:02:26;17.10;;;10.03;;
47367;SDS011;34646;47.964;7.982;2022-12-18T19:08:28;18.40;;;9.30;;
47367;SDS011;34646;47.964;7.982;2022-12-18T19:14:31;15.73;;;8.20;;
47367;SDS011;34646;47.964;7.982;2022-12-18T19:20:32;19.10;;;9.53;;
47367;SDS011;34646;47.964;7.982;2022-12-18T19:26:32;16.30;;;9.10;;
47367;SDS011;34646;47.964;7.982;2022-12-18T19:32:33;17.83;;;8.97;;
47367;SDS011;34646;47.964;7.982;2022-12-18T19:38:34;17.77;;;9.20;;
47367;SDS011;34646;47.964;7.982;2022-12-18T19:44:35;15.60;;;8.60;;
47367;SDS011;34646;47.964;7.982;2022-12-18T19:50:39;17.17;;;8.60;;
47367;SDS011;34646;47.964;7.982;2022-12-18T19:56:40;17.67;;;8.73;;
47367;SDS011;34646;47.964;7.982;2022-12-18T20:02:41;15.00;;;8.03;;
47367;SDS011;34646;47.964;7.982;2022-12-18T20:08:42;16.13;;;9.10;;
47367;SDS011;34646;47.964;7.982;2022-12-18T20:14:43;13.87;;;7.93;;
47367;SDS011;34646;47.964;7.982;2022-12-18T20:20:43;11.17;;;7.67;;
47367;SDS011;34646;47.964;7.982;2022-12-18T20:26:44;13.23;;;8.57;;
47367;SDS011;34646;47.964;7.982;2022-12-18T20:32:45;11.73;;;7.83;;
47367;SDS011;34646;47.964;7.982;2022-12-18T20:38:45;11.80;;;7.17;;
47367;SDS011;34646;47.964;7.982;2022-12-18T20:44:46;13.27;;;7.77;;
47367;SDS011;34646;47.964;7.982;2022-12-18T20:50:55;12.27;;;7.67;;
47367;SDS011;34646;47.964;7.982;2022-12-18T20:56:59;13.70;;;7.25;;
47367;SDS011;34646;47.964;7.982;2022-12-18T21:03:00;27.90;;;8.60;;
47367;SDS011;34646;47.964;7.982;2022-12-18T21:09:00;13.77;;;7.27;;
47367;SDS011;34646;47.964;7.982;2022-12-18T21:15:02;12.80;;;7.13;;
47367;SDS011;34646;47.964;7.982;2022-12-18T21:21:04;10.77;;;6.90;;
47367;SDS011;34646;47.964;7.982;2022-12-18T21:27:05;15.23;;;7.23;;
47367;SDS011;34646;47.964;7.982;2022-12-18T21:33:06;13.97;;;7.70;;
47367;SDS011;34646;47.964;7.982;2022-12-18T21:39:07;9.13;;;6.70;;
47367;SDS011;34646;47.964;7.982;2022-12-18T21:45:08;11.65;;;7.32;;
47367;SDS011;34646;47.964;7.982;2022-12-18T21:51:09;34.63;;;7.13;;
47367;SDS011;34646;47.964;7.982;2022-12-18T21:57:10;11.40;;;6.77;;
47367;SDS011;34646;47.964;7.982;2022-12-18T22:03:12;10.88;;;6.15;;
47367;SDS011;34646;47.964;7.982;2022-12-18T22:09:14;9.97;;;5.97;;
47367;SDS011;34646;47.964;7.982;2022-12-18T22:15:16;9.18;;;6.15;;
47367;SDS011;34646;47.964;7.982;2022-12-18T22:21:21;8.87;;;5.60;;
47367;SDS011;34646;47.964;7.982;2022-12-18T22:27:23;11.90;;;6.93;;
47367;SDS011;34646;47.964;7.982;2022-12-18T22:33:24;10.37;;;6.07;;
47367;SDS011;34646;47.964;7.982;2022-12-18T22:39:26;10.77;;;6.73;;
47367;SDS011;34646;47.964;7.982;2022-12-18T22:45:28;10.02;;;6.30;;
47367;SDS011;34646;47.964;7.982;2022-12-18T22:51:29;9.07;;;5.50;;
47367;SDS011;34646;47.964;7.982;2022-12-18T22:57:30;7.60;;;5.50;;
47367;SDS011;34646;47.964;7.982;2022-12-18T23:03:34;9.20;;;5.80;;
47367;SDS011;34646;47.964;7.982;2022-12-18T23:09:35;10.85;;;6.03;;
47367;SDS011;34646;47.964;7.982;2022-12-18T23:15:39;8.07;;;5.33;;
47367;SDS011;34646;47.964;7.982;2022-12-18T23:21:41;7.80;;;5.13;;
47367;SDS011;34646;47.964;7.982;2022-12-18T23:27:41;10.93;;;6.00;;
47367;SDS011;34646;47.964;7.982;2022-12-18T23:33:43;7.77;;;4.97;;
47367;SDS011;34646;47.964;7.982;2022-12-18T23:39:44;7.32;;;5.22;;
47367;SDS011;34646;47.964;7.982;2022-12-18T23:45:45;8.27;;;5.50;;
47367;SDS011;34646;47.964;7.982;2022-12-18T23:51:45;6.93;;;4.60;;
47367;SDS011;34646;47.964;7.982;2022-12-18T23:57:46;8.43;;;5.90;;
